Dresden, Missouri
Current Conditions -  °F | °C
As of 2:53 PM on Thursday 20 Nov 2014 (Local Time) from KDMO Reporting Station
Clear Clear  
Wind Chill: 38°   Ceiling: Unl
Heat Index: 41°   Visibility: 10mi
Dew Point: 18°   Wind: 5mph
Humidity: 40%   Direction: 360°N
Pressure: 30.2"   Gusts: NA
Location:  38.6763°N, 93.2612°W
Report Text: KDMO 202053Z AUTO 36004KT 10SM CLR 05/M08 A3020 RMK AO2 SLP236 T00501078 56017
Loading
Personal Weather Stations






























Interactive Weather Map New forecast layout! Learn more

10-Day Weather Forecast

Advertisements
Track Severe Weather on mobile